Time;durP1;ratioP1;P1;durP2;ratioP2;P2;SDS_P1;SDS_P2;PMS_P1;PMS_P2;Temp;Humidity;BMP_temperature;BMP_pressure;BME280_temperature;BME280_humidity;BME280_pressure;Samples;Min_cycle;Max_cycle;Signal;HPM_P1;HPM_P2
2023/09/04 00:01:27;;;;;;;13.98;12.68;;;;;;;;;;5093578;28;20036;-77
2023/09/04 00:03:53;;;;;;;12.43;11.13;;;;;;;;;;5102166;28;20023;-77
2023/09/04 00:06:19;;;;;;;14.68;12.98;;;;;;;;;;5093838;28;20024;-78
2023/09/04 00:08:45;;;;;;;13.50;12.07;;;;;;;;;;5096098;28;20024;-78
2023/09/04 00:11:11;;;;;;;12.88;11.57;;;;;;;;;;5094473;28;20434;-78
2023/09/04 00:13:37;;;;;;;13.02;11.60;;;;;;;;;;5115788;27;20027;-77
2023/09/04 00:16:03;;;;;;;14.10;12.45;;;;;;;;;;5095210;28;20527;-78
2023/09/04 00:18:30;;;;;;;12.70;11.32;;;;;;;;;;5111615;27;20027;-78
2023/09/04 00:20:56;;;;;;;11.57;10.55;;;;;;;;;;5110162;27;20034;-78
2023/09/04 00:23:22;;;;;;;13.23;11.93;;;;;;;;;;5098249;28;20103;-78
2023/09/04 00:25:48;;;;;;;13.40;12.20;;;;;;;;;;5099280;28;20011;-78
2023/09/04 00:28:18;;;;;;;12.40;11.20;;;;;;;;;;5091722;28;20039;-79
2023/09/04 00:30:44;;;;;;;11.95;10.75;;;;;;;;;;5092772;28;20039;-77
2023/09/04 00:33:10;;;;;;;13.52;11.90;;;;;;;;;;5093057;28;20474;-77
2023/09/04 00:35:36;;;;;;;13.75;12.38;;;;;;;;;;5093199;28;20035;-77
2023/09/04 00:38:02;;;;;;;12.95;11.52;;;;;;;;;;5096711;28;20019;-77
2023/09/04 00:40:28;;;;;;;14.32;13.02;;;;;;;;;;5100997;28;20024;-77
2023/09/04 00:42:54;;;;;;;13.98;12.73;;;;;;;;;;5095837;28;20081;-78
2023/09/04 00:45:20;;;;;;;14.68;13.18;;;;;;;;;;5103765;28;20015;-77
2023/09/04 00:47:46;;;;;;;16.15;13.52;;;;;;;;;;5096672;28;20051;-76
2023/09/04 00:50:15;;;;;;;16.05;14.57;;;;;;;;;;5092973;28;20110;-76
2023/09/04 00:52:41;;;;;;;16.58;15.18;;;;;;;;;;5092848;28;20036;-77
2023/09/04 00:55:08;;;;;;;17.63;15.93;;;;;;;;;;5094147;28;20483;-77
2023/09/04 00:57:35;;;;;;;18.73;17.00;;;;;;;;;;5114936;28;20021;-78
2023/09/04 01:00:05;;;;;;;16.13;14.77;;;;;;;;;;5092748;28;20477;-78
2023/09/04 01:02:31;;;;;;;19.83;15.73;;;;;;;;;;5101022;28;20012;-77
2023/09/04 01:04:57;;;;;;;15.82;14.35;;;;;;;;;;5109955;28;20565;-77
2023/09/04 01:07:23;;;;;;;18.42;16.52;;;;;;;;;;5115014;28;20039;-77
2023/09/04 01:09:49;;;;;;;16.85;14.88;;;;;;;;;;5095657;28;20031;-78
2023/09/04 01:12:19;;;;;;;16.92;15.27;;;;;;;;;;5107247;28;20020;-78
2023/09/04 01:14:47;;;;;;;16.55;14.93;;;;;;;;;;5097607;28;20027;-77
2023/09/04 01:17:14;;;;;;;16.52;14.95;;;;;;;;;;5106561;28;20104;-77
2023/09/04 01:19:40;;;;;;;15.65;14.20;;;;;;;;;;5098544;28;20036;-77
2023/09/04 01:22:07;;;;;;;16.25;14.55;;;;;;;;;;5107088;28;20504;-77
2023/09/04 01:24:33;;;;;;;16.15;14.55;;;;;;;;;;5103224;28;20024;-77
2023/09/04 01:27:03;;;;;;;15.00;13.50;;;;;;;;;;5095886;28;20024;-76
2023/09/04 01:29:35;;;;;;;15.45;14.05;;;;;;;;;;5094383;28;20530;-77
2023/09/04 01:32:10;;;;;;;17.50;15.07;;;;;;;;;;5122880;28;20032;-76
2023/09/04 01:34:43;;;;;;;20.50;15.27;;;;;;;;;;5113625;28;20411;-76
2023/09/04 01:37:10;;;;;;;16.92;15.25;;;;;;;;;;5121224;28;20106;-76
2023/09/04 01:39:37;;;;;;;16.17;14.68;;;;;;;;;;5102066;28;20020;-76
2023/09/04 01:42:03;;;;;;;16.90;15.40;;;;;;;;;;5107139;28;20035;-76
2023/09/04 01:44:29;;;;;;;15.73;14.25;;;;;;;;;;5095347;28;20364;-76
2023/09/04 01:46:55;;;;;;;16.80;15.20;;;;;;;;;;5098148;28;20047;-76
2023/09/04 01:49:21;;;;;;;15.98;14.38;;;;;;;;;;5106504;28;20021;-76
2023/09/04 01:51:47;;;;;;;16.83;15.27;;;;;;;;;;5096166;28;20092;-76
2023/09/04 01:54:13;;;;;;;16.50;14.80;;;;;;;;;;5096030;28;20020;-78
2023/09/04 01:56:39;;;;;;;17.25;15.65;;;;;;;;;;5095938;28;20086;-77
2023/09/04 01:59:05;;;;;;;16.23;14.27;;;;;;;;;;5083768;28;20012;-76
2023/09/04 02:01:31;;;;;;;16.27;14.77;;;;;;;;;;5104695;28;20067;-77
2023/09/04 02:03:58;;;;;;;17.23;15.52;;;;;;;;;;5095724;28;20044;-77
2023/09/04 02:06:25;;;;;;;16.27;14.77;;;;;;;;;;5095865;28;20031;-77
2023/09/04 02:08:51;;;;;;;17.77;16.15;;;;;;;;;;5113049;27;20038;-78
2023/09/04 02:11:17;;;;;;;17.08;15.30;;;;;;;;;;5136759;27;20034;-78
2023/09/04 02:13:45;;;;;;;16.45;14.85;;;;;;;;;;5103382;27;20024;-77
2023/09/04 02:16:12;;;;;;;18.30;16.52;;;;;;;;;;5096711;28;20020;-78
2023/09/04 02:18:38;;;;;;;16.60;14.85;;;;;;;;;;5104915;28;20477;-78
2023/09/04 02:21:04;;;;;;;17.00;15.32;;;;;;;;;;5097351;28;20028;-76
2023/09/04 02:23:30;;;;;;;16.95;14.88;;;;;;;;;;5095781;28;20424;-77
2023/09/04 02:25:56;;;;;;;18.17;16.25;;;;;;;;;;5116512;27;20541;-77
2023/09/04 02:28:22;;;;;;;16.77;15.18;;;;;;;;;;5125441;27;20039;-77
2023/09/04 02:30:48;;;;;;;16.05;14.63;;;;;;;;;;5121241;27;20019;-76
2023/09/04 02:33:15;;;;;;;16.77;15.18;;;;;;;;;;5105467;27;20023;-77
2023/09/04 02:35:41;;;;;;;16.13;14.52;;;;;;;;;;5107933;27;20480;-77
2023/09/04 02:38:07;;;;;;;15.57;14.07;;;;;;;;;;5119717;27;20078;-78
2023/09/04 02:40:33;;;;;;;16.33;14.82;;;;;;;;;;5095263;28;20012;-77
2023/09/04 02:42:59;;;;;;;16.50;14.80;;;;;;;;;;5110933;28;20469;-77
2023/09/04 02:45:25;;;;;;;15.88;14.25;;;;;;;;;;5104145;28;20020;-79
2023/09/04 02:47:51;;;;;;;14.73;13.45;;;;;;;;;;5120027;27;20074;-79
2023/09/04 02:50:18;;;;;;;15.73;14.15;;;;;;;;;;5117289;27;20028;-77
2023/09/04 02:52:44;;;;;;;15.07;13.57;;;;;;;;;;5123549;27;20034;-79
2023/09/04 02:55:10;;;;;;;15.30;13.88;;;;;;;;;;5103270;28;20020;-77
2023/09/04 02:57:36;;;;;;;14.80;13.40;;;;;;;;;;5094784;28;20377;-78
2023/09/04 03:00:06;;;;;;;16.35;13.10;;;;;;;;;;5094858;28;20016;-78
2023/09/04 03:02:34;;;;;;;14.07;12.68;;;;;;;;;;5095053;28;20351;-79
2023/09/04 03:05:00;;;;;;;13.60;12.20;;;;;;;;;;5104685;28;20469;-78
2023/09/04 03:07:26;;;;;;;12.77;11.57;;;;;;;;;;5094571;28;20036;-78
2023/09/04 03:09:59;;;;;;;14.23;12.93;;;;;;;;;;5094510;28;20024;-79
2023/09/04 03:12:26;;;;;;;14.50;12.88;;;;;;;;;;5091039;28;20051;-79
2023/09/04 03:15:10;;;;;;;12.90;11.70;;;;;;;;;;5094434;28;20054;-79
2023/09/04 03:17:36;;;;;;;12.40;10.85;;;;;;;;;;5094487;28;20020;-79
2023/09/04 03:20:04;;;;;;;12.60;11.40;;;;;;;;;;5094500;28;20106;-78
2023/09/04 03:22:30;;;;;;;14.00;11.80;;;;;;;;;;5107067;28;20020;-79
2023/09/04 03:24:56;;;;;;;13.52;11.68;;;;;;;;;;5094275;28;20024;-78
2023/09/04 03:27:22;;;;;;;12.38;10.90;;;;;;;;;;5094065;28;20089;-78
2023/09/04 03:29:52;;;;;;;12.48;10.65;;;;;;;;;;5087828;28;20047;-79
2023/09/04 03:32:18;;;;;;;12.68;11.43;;;;;;;;;;5094850;28;20034;-79
2023/09/04 03:34:44;;;;;;;13.20;11.93;;;;;;;;;;5089019;28;20178;-76
2023/09/04 03:37:10;;;;;;;13.70;12.30;;;;;;;;;;5098764;28;20470;-77
2023/09/04 03:39:37;;;;;;;13.25;11.70;;;;;;;;;;5107528;28;20047;-76
2023/09/04 03:42:03;;;;;;;14.07;11.77;;;;;;;;;;5101367;28;20044;-78
2023/09/04 03:44:29;;;;;;;11.60;10.60;;;;;;;;;;5081617;28;20099;-76
2023/09/04 03:46:55;;;;;;;11.70;10.60;;;;;;;;;;5104192;28;20144;-77
2023/09/04 03:49:21;;;;;;;13.30;11.75;;;;;;;;;;5093872;28;20055;-76
2023/09/04 03:51:47;;;;;;;13.13;11.57;;;;;;;;;;5093705;28;20050;-77
2023/09/04 03:54:13;;;;;;;11.95;10.85;;;;;;;;;;5093741;28;20026;-77
2023/09/04 03:56:39;;;;;;;13.55;12.23;;;;;;;;;;5106088;28;20432;-78
2023/09/04 03:59:05;;;;;;;11.93;10.90;;;;;;;;;;5093632;28;20021;-77
2023/09/04 04:01:31;;;;;;;13.88;12.20;;;;;;;;;;5093564;28;20028;-78
2023/09/04 04:03:58;;;;;;;13.82;11.18;;;;;;;;;;5103485;28;20055;-77
2023/09/04 04:06:25;;;;;;;13.00;11.45;;;;;;;;;;5111392;28;20024;-78
2023/09/04 04:08:51;;;;;;;13.27;11.88;;;;;;;;;;5093361;28;20032;-77
2023/09/04 04:11:19;;;;;;;12.65;11.32;;;;;;;;;;5103804;28;20027;-78
2023/09/04 04:13:45;;;;;;;12.27;11.07;;;;;;;;;;5096075;28;20039;-77
2023/09/04 04:16:11;;;;;;;11.85;10.80;;;;;;;;;;5093369;28;20403;-79
2023/09/04 04:18:37;;;;;;;11.70;10.70;;;;;;;;;;5093307;28;20389;-78
2023/09/04 04:21:04;;;;;;;12.07;10.88;;;;;;;;;;5093477;28;20016;-78
2023/09/04 04:23:30;;;;;;;11.07;10.07;;;;;;;;;;5093367;28;20082;-77
2023/09/04 04:25:56;;;;;;;11.90;10.80;;;;;;;;;;5107468;28;20024;-77
2023/09/04 04:28:23;;;;;;;11.80;10.60;;;;;;;;;;5093141;28;20040;-77
2023/09/04 04:30:49;;;;;;;11.43;10.35;;;;;;;;;;5091563;28;20024;-77
2023/09/04 04:33:15;;;;;;;11.15;10.02;;;;;;;;;;5093288;28;20347;-77
2023/09/04 04:35:41;;;;;;;11.38;10.35;;;;;;;;;;5096011;28;20469;-77
2023/09/04 04:38:07;;;;;;;11.93;9.98;;;;;;;;;;5134008;27;20046;-77
2023/09/04 04:40:33;;;;;;;12.27;9.40;;;;;;;;;;5107091;27;20062;-78
2023/09/04 04:43:00;;;;;;;10.18;9.27;;;;;;;;;;5092988;28;20016;-77
2023/09/04 04:45:26;;;;;;;10.65;9.35;;;;;;;;;;5100011;28;20036;-78
2023/09/04 04:47:52;;;;;;;10.40;9.48;;;;;;;;;;5113256;28;20111;-78
2023/09/04 04:50:30;;;;;;;10.20;9.30;;;;;;;;;;5122633;28;20031;-78
2023/09/04 04:52:56;;;;;;;11.10;9.23;;;;;;;;;;5104872;28;20020;-78
2023/09/04 04:55:22;;;;;;;10.40;9.40;;;;;;;;;;5121426;28;20027;-78
2023/09/04 04:57:49;;;;;;;10.85;9.75;;;;;;;;;;5112944;28;20154;-78
2023/09/04 05:00:15;;;;;;;10.15;9.18;;;;;;;;;;5095969;28;20054;-77
2023/09/04 05:02:41;;;;;;;10.52;9.10;;;;;;;;;;5101667;28;20020;-78
2023/09/04 05:05:08;;;;;;;9.68;8.77;;;;;;;;;;5098018;28;20579;-79
2023/09/04 05:07:34;;;;;;;13.52;10.02;;;;;;;;;;5101498;28;20051;-79
2023/09/04 05:10:00;;;;;;;11.60;9.30;;;;;;;;;;5080845;28;20042;-79
2023/09/04 05:12:26;;;;;;;10.45;9.35;;;;;;;;;;5113046;28;20106;-78
2023/09/04 05:14:52;;;;;;;12.55;9.48;;;;;;;;;;5101300;28;20078;-78
2023/09/04 05:17:18;;;;;;;9.75;8.85;;;;;;;;;;5096281;28;20496;-79
2023/09/04 05:19:44;;;;;;;11.98;9.30;;;;;;;;;;5106028;28;20024;-71
2023/09/04 05:22:10;;;;;;;10.00;9.13;;;;;;;;;;5098634;28;20066;-71
2023/09/04 05:24:36;;;;;;;9.43;8.63;;;;;;;;;;5109115;28;20031;-70
2023/09/04 05:27:03;;;;;;;9.68;8.80;;;;;;;;;;5096779;28;20430;-70
2023/09/04 05:29:30;;;;;;;9.25;8.40;;;;;;;;;;5084397;28;20111;-70
2023/09/04 05:31:56;;;;;;;9.80;8.32;;;;;;;;;;5116255;27;20023;-71
2023/09/04 05:34:22;;;;;;;9.23;8.32;;;;;;;;;;5115942;27;20040;-70
2023/09/04 05:36:48;;;;;;;9.68;7.40;;;;;;;;;;5108754;28;20031;-70
2023/09/04 05:39:14;;;;;;;7.60;7.00;;;;;;;;;;5123250;27;20035;-70
2023/09/04 05:41:40;;;;;;;8.50;7.70;;;;;;;;;;5096739;28;20017;-70
2023/09/04 05:44:06;;;;;;;8.10;7.40;;;;;;;;;;5096676;28;20449;-70
2023/09/04 05:46:32;;;;;;;8.73;7.30;;;;;;;;;;5108914;27;20046;-70
2023/09/04 05:48:58;;;;;;;8.85;7.70;;;;;;;;;;5111886;27;20028;-70
2023/09/04 05:51:25;;;;;;;10.05;8.73;;;;;;;;;;5109522;28;20099;-70
2023/09/04 05:53:51;;;;;;;9.85;7.28;;;;;;;;;;5106150;27;20073;-70
2023/09/04 05:56:17;;;;;;;11.75;8.02;;;;;;;;;;5114547;27;20027;-70
2023/09/04 05:58:46;;;;;;;8.00;7.20;;;;;;;;;;5108988;27;20027;-61
2023/09/04 06:01:13;;;;;;;8.57;7.65;;;;;;;;;;5113843;27;20102;-63
2023/09/04 06:03:40;;;;;;;9.13;7.10;;;;;;;;;;5117004;27;20058;-61
2023/09/04 06:06:06;;;;;;;8.52;7.60;;;;;;;;;;5099961;28;20025;-61
2023/09/04 06:08:33;;;;;;;10.93;8.20;;;;;;;;;;5095603;28;20425;-61
2023/09/04 06:10:59;;;;;;;9.48;7.53;;;;;;;;;;5103335;28;20016;-60
2023/09/04 06:13:25;;;;;;;8.85;7.95;;;;;;;;;;5115884;28;20485;-61
2023/09/04 06:15:51;;;;;;;10.70;8.07;;;;;;;;;;5095670;28;20091;-61
2023/09/04 06:18:19;;;;;;;8.75;7.85;;;;;;;;;;5095464;28;20032;-61
2023/09/04 06:20:45;;;;;;;10.43;7.63;;;;;;;;;;5095428;28;20505;-61
2023/09/04 06:23:11;;;;;;;10.32;8.32;;;;;;;;;;5116050;27;20019;-61
2023/09/04 06:25:39;;;;;;;9.80;8.15;;;;;;;;;;5103193;27;20028;-61
2023/09/04 06:28:09;;;;;;;9.98;7.53;;;;;;;;;;5094720;28;20075;-61
2023/09/04 06:30:35;;;;;;;10.50;7.68;;;;;;;;;;5095525;28;20030;-62
2023/09/04 06:33:01;;;;;;;11.38;8.75;;;;;;;;;;5095385;28;20023;-62
2023/09/04 06:35:28;;;;;;;10.80;7.85;;;;;;;;;;5095527;28;20031;-62
2023/09/04 06:37:54;;;;;;;9.13;7.18;;;;;;;;;;5095118;28;20020;-62
2023/09/04 06:40:20;;;;;;;10.13;7.70;;;;;;;;;;5095165;28;20028;-62
2023/09/04 06:42:46;;;;;;;10.48;7.70;;;;;;;;;;5095095;28;20161;-62
2023/09/04 06:45:13;;;;;;;10.32;7.70;;;;;;;;;;5095402;28;20085;-62
2023/09/04 06:47:39;;;;;;;8.98;7.47;;;;;;;;;;5094599;28;20044;-60
2023/09/04 06:50:06;;;;;;;11.30;7.05;;;;;;;;;;5094960;28;20483;-60
2023/09/04 06:52:32;;;;;;;10.05;7.70;;;;;;;;;;5095007;28;20024;-61
2023/09/04 06:54:58;;;;;;;9.95;7.95;;;;;;;;;;5096888;27;20050;-61
2023/09/04 06:57:24;;;;;;;10.65;8.13;;;;;;;;;;5107199;28;20070;-61
2023/09/04 06:59:50;;;;;;;10.63;8.30;;;;;;;;;;5088825;28;20390;-61
2023/09/04 07:02:16;;;;;;;8.70;7.57;;;;;;;;;;5098942;28;20484;-61
2023/09/04 07:04:43;;;;;;;7.28;6.57;;;;;;;;;;5104515;28;20415;-61
2023/09/04 07:07:10;;;;;;;9.40;7.88;;;;;;;;;;5094462;28;20028;-61
2023/09/04 07:09:36;;;;;;;8.93;7.68;;;;;;;;;;5094578;28;20028;-61
2023/09/04 07:12:02;;;;;;;13.02;9.32;;;;;;;;;;5110889;28;20027;-61
2023/09/04 07:14:28;;;;;;;9.02;8.02;;;;;;;;;;5106269;28;20031;-61
2023/09/04 07:16:54;;;;;;;11.93;8.00;;;;;;;;;;5094432;28;20024;-61
2023/09/04 07:19:20;;;;;;;10.25;7.57;;;;;;;;;;5095741;28;20031;-61
2023/09/04 07:21:46;;;;;;;15.43;7.88;;;;;;;;;;5102202;28;20031;-61
2023/09/04 07:24:12;;;;;;;11.48;8.45;;;;;;;;;;5122967;27;20025;-61
2023/09/04 07:26:38;;;;;;;14.48;8.25;;;;;;;;;;5094225;28;20023;-61
2023/09/04 07:29:04;;;;;;;10.80;7.68;;;;;;;;;;5094343;28;20366;-61
2023/09/04 07:31:30;;;;;;;12.57;10.02;;;;;;;;;;5094157;28;20095;-61
2023/09/04 07:33:56;;;;;;;11.05;9.40;;;;;;;;;;5093959;28;20500;-61
2023/09/04 07:36:22;;;;;;;12.80;10.30;;;;;;;;;;5094037;28;20550;-62
2023/09/04 07:38:48;;;;;;;12.55;11.27;;;;;;;;;;5094172;28;20051;-61
2023/09/04 07:41:14;;;;;;;15.95;11.07;;;;;;;;;;5092917;28;20027;-62
2023/09/04 07:43:40;;;;;;;11.32;9.95;;;;;;;;;;5093819;28;20036;-62
2023/09/04 07:46:06;;;;;;;16.05;11.32;;;;;;;;;;5093653;28;20032;-61
2023/09/04 07:48:34;;;;;;;12.60;11.10;;;;;;;;;;5093796;28;20028;-61
2023/09/04 07:51:00;;;;;;;15.65;12.32;;;;;;;;;;5108090;28;20019;-61
2023/09/04 07:53:26;;;;;;;16.55;10.73;;;;;;;;;;5093703;28;20028;-61
2023/09/04 07:55:52;;;;;;;11.43;9.13;;;;;;;;;;5093750;28;20039;-61
2023/09/04 07:58:18;;;;;;;11.45;10.35;;;;;;;;;;5093694;28;20105;-62
2023/09/04 08:00:48;;;;;;;10.73;9.02;;;;;;;;;;5093666;28;20073;-61
2023/09/04 08:03:14;;;;;;;10.50;9.35;;;;;;;;;;5093601;28;20042;-61
2023/09/04 08:05:40;;;;;;;13.77;10.02;;;;;;;;;;5093605;28;20074;-61
2023/09/04 08:08:10;;;;;;;12.48;9.48;;;;;;;;;;5093202;28;20416;-61
2023/09/04 08:10:40;;;;;;;12.80;8.93;;;;;;;;;;5097867;28;20016;-61
2023/09/04 08:13:15;;;;;;;12.82;10.30;;;;;;;;;;5103112;28;20377;-62
2023/09/04 08:15:41;;;;;;;16.40;12.50;;;;;;;;;;5093370;28;20016;-61
2023/09/04 08:18:07;;;;;;;12.57;11.38;;;;;;;;;;5093232;28;20497;-61
2023/09/04 08:20:34;;;;;;;16.92;11.32;;;;;;;;;;5093110;28;20351;-61
2023/09/04 08:23:00;;;;;;;14.00;12.57;;;;;;;;;;5086816;28;20028;-61
2023/09/04 08:25:26;;;;;;;11.73;10.65;;;;;;;;;;5093195;28;20024;-61
2023/09/04 08:27:52;;;;;;;13.77;12.15;;;;;;;;;;5088657;28;20119;-61
2023/09/04 08:30:18;;;;;;;13.35;11.32;;;;;;;;;;5093102;28;20470;-61
2023/09/04 08:32:44;;;;;;;15.52;12.95;;;;;;;;;;5080883;28;20042;-61
2023/09/04 08:35:11;;;;;;;13.57;12.18;;;;;;;;;;5102692;28;20012;-61
2023/09/04 08:37:37;;;;;;;12.75;11.40;;;;;;;;;;5093034;28;20162;-63
2023/09/04 08:40:03;;;;;;;14.80;13.27;;;;;;;;;;5093074;28;20047;-62
2023/09/04 08:42:29;;;;;;;14.27;12.93;;;;;;;;;;5092978;28;20103;-61
2023/09/04 08:44:59;;;;;;;12.93;11.63;;;;;;;;;;5093033;28;20044;-61
2023/09/04 08:47:25;;;;;;;12.25;11.02;;;;;;;;;;5092574;28;20472;-61
2023/09/04 08:49:55;;;;;;;14.45;12.98;;;;;;;;;;5092798;28;20419;-62
2023/09/04 08:52:21;;;;;;;12.70;11.40;;;;;;;;;;5097322;28;20081;-61
2023/09/04 08:54:48;;;;;;;13.80;12.60;;;;;;;;;;5099608;28;20020;-61
2023/09/04 08:57:14;;;;;;;12.98;11.35;;;;;;;;;;5099895;28;20373;-61
2023/09/04 08:59:40;;;;;;;14.57;13.18;;;;;;;;;;5099596;28;20031;-61
2023/09/04 09:02:09;;;;;;;14.30;12.90;;;;;;;;;;5093156;28;20039;-61
2023/09/04 09:04:35;;;;;;;13.85;12.43;;;;;;;;;;5099449;28;20070;-61
2023/09/04 09:07:02;;;;;;;17.05;13.07;;;;;;;;;;5106689;28;20016;-62
2023/09/04 09:09:29;;;;;;;13.85;11.80;;;;;;;;;;5106547;28;20035;-61
2023/09/04 09:12:01;;;;;;;14.00;12.70;;;;;;;;;;5113798;28;20090;-61
2023/09/04 09:14:28;;;;;;;15.82;14.25;;;;;;;;;;5099340;28;20028;-61
2023/09/04 09:17:07;;;;;;;15.00;13.57;;;;;;;;;;5086946;27;20111;-61
2023/09/04 09:19:33;;;;;;;13.38;12.13;;;;;;;;;;5099517;28;20382;-61
2023/09/04 09:22:16;;;;;;;14.82;11.20;;;;;;;;;;5099261;28;20122;-61
2023/09/04 09:24:52;;;;;;;13.70;11.55;;;;;;;;;;5099014;28;20111;-61
2023/09/04 09:27:19;;;;;;;14.38;13.07;;;;;;;;;;5098171;28;20034;-62
2023/09/04 09:29:46;;;;;;;16.40;14.68;;;;;;;;;;5098549;28;20032;-61
2023/09/04 09:32:12;;;;;;;17.83;14.20;;;;;;;;;;5098280;28;20504;-61
2023/09/04 09:34:39;;;;;;;16.65;15.00;;;;;;;;;;5106528;27;20023;-61
2023/09/04 09:37:07;;;;;;;13.80;12.60;;;;;;;;;;5119505;27;20083;-61
2023/09/04 09:39:34;;;;;;;15.30;13.70;;;;;;;;;;5102227;27;20024;-61
2023/09/04 09:42:00;;;;;;;14.88;12.57;;;;;;;;;;5099348;28;20054;-62
2023/09/04 09:44:33;;;;;;;15.10;13.65;;;;;;;;;;5099106;28;20424;-61
2023/09/04 09:46:59;;;;;;;16.13;14.45;;;;;;;;;;5092361;28;20125;-61
2023/09/04 09:49:26;;;;;;;20.27;13.10;;;;;;;;;;5099091;28;20032;-61
2023/09/04 09:51:53;;;;;;;14.20;12.63;;;;;;;;;;5099070;28;20377;-61
2023/09/04 09:54:33;;;;;;;13.75;12.43;;;;;;;;;;5099120;28;20031;-62
2023/09/04 09:57:01;;;;;;;15.57;13.55;;;;;;;;;;5099259;28;20091;-62
2023/09/04 09:59:28;;;;;;;13.10;11.90;;;;;;;;;;5099032;28;20031;-61
2023/09/04 10:01:54;;;;;;;11.77;10.57;;;;;;;;;;5099100;28;20028;-62
2023/09/04 10:04:21;;;;;;;12.07;10.88;;;;;;;;;;5095446;28;20089;-62
2023/09/04 10:06:47;;;;;;;14.20;12.88;;;;;;;;;;5095925;28;20020;-62
2023/09/04 10:09:15;;;;;;;13.07;11.82;;;;;;;;;;5096062;28;20028;-61
2023/09/04 10:11:44;;;;;;;14.13;12.63;;;;;;;;;;5108790;27;20076;-62
2023/09/04 10:14:16;;;;;;;12.65;11.23;;;;;;;;;;5095820;28;20112;-62
2023/09/04 10:16:48;;;;;;;12.52;11.32;;;;;;;;;;5095815;28;20095;-62
2023/09/04 10:19:17;;;;;;;16.02;14.27;;;;;;;;;;5095517;28;20486;-62
2023/09/04 10:21:47;;;;;;;13.85;12.38;;;;;;;;;;5095439;28;20477;-62
2023/09/04 10:24:13;;;;;;;13.57;12.27;;;;;;;;;;5083104;28;20381;-61
2023/09/04 10:26:46;;;;;;;14.68;13.32;;;;;;;;;;5105035;28;20045;-61
2023/09/04 10:29:16;;;;;;;13.00;11.77;;;;;;;;;;5095497;28;20493;-61
2023/09/04 10:31:43;;;;;;;15.15;13.35;;;;;;;;;;5095419;28;20062;-61
2023/09/04 10:34:09;;;;;;;17.85;14.63;;;;;;;;;;5095473;28;20024;-61
2023/09/04 10:36:37;;;;;;;17.17;14.95;;;;;;;;;;5095217;28;20047;-61
2023/09/04 10:39:04;;;;;;;16.35;13.23;;;;;;;;;;5095448;28;20073;-61
2023/09/04 10:41:30;;;;;;;13.77;12.57;;;;;;;;;;5095161;28;20478;-61
2023/09/04 10:43:57;;;;;;;12.45;11.27;;;;;;;;;;5095139;28;20046;-61
2023/09/04 10:46:23;;;;;;;14.73;12.52;;;;;;;;;;5095269;28;20425;-61
2023/09/04 10:48:50;;;;;;;17.52;13.38;;;;;;;;;;5094937;28;20040;-61
2023/09/04 10:51:28;;;;;;;12.93;11.73;;;;;;;;;;5094928;28;20020;-61
2023/09/04 10:53:54;;;;;;;13.32;11.98;;;;;;;;;;5094982;28;20098;-61
2023/09/04 10:56:20;;;;;;;13.80;11.20;;;;;;;;;;5094731;28;20061;-61
2023/09/04 10:58:59;;;;;;;17.17;13.30;;;;;;;;;;5094751;28;20500;-60
2023/09/04 11:01:39;;;;;;;16.40;14.80;;;;;;;;;;5094726;28;20482;-61
2023/09/04 11:04:06;;;;;;;16.58;11.88;;;;;;;;;;5094695;28;20036;-61
2023/09/04 11:06:36;;;;;;;15.30;13.80;;;;;;;;;;5082444;28;20015;-61
2023/09/04 11:09:03;;;;;;;14.45;12.85;;;;;;;;;;5102731;28;20032;-61
2023/09/04 11:11:29;;;;;;;13.13;11.90;;;;;;;;;;5106469;28;20020;-62
2023/09/04 11:13:58;;;;;;;13.63;12.20;;;;;;;;;;5104111;28;20382;-62
2023/09/04 11:16:28;;;;;;;11.55;10.48;;;;;;;;;;5115323;27;20035;-62
2023/09/04 11:19:00;;;;;;;15.23;10.80;;;;;;;;;;5101495;27;20028;-62
2023/09/04 11:21:33;;;;;;;16.60;11.50;;;;;;;;;;5094359;28;20016;-62
2023/09/04 11:23:59;;;;;;;9.55;8.57;;;;;;;;;;5094256;28;20033;-62
2023/09/04 11:26:26;;;;;;;10.13;8.35;;;;;;;;;;5094262;28;20023;-62
2023/09/04 11:28:52;;;;;;;10.13;9.00;;;;;;;;;;5094060;28;20035;-62
2023/09/04 11:31:18;;;;;;;11.75;7.72;;;;;;;;;;5094263;28;20362;-62
2023/09/04 11:33:48;;;;;;;11.00;8.55;;;;;;;;;;5094157;28;20473;-62
2023/09/04 11:36:14;;;;;;;10.52;9.43;;;;;;;;;;5081780;28;20016;-62
2023/09/04 11:38:40;;;;;;;10.57;9.48;;;;;;;;;;5102759;28;20077;-62
2023/09/04 11:41:19;;;;;;;9.88;8.95;;;;;;;;;;5093875;28;20016;-62
2023/09/04 11:43:45;;;;;;;9.38;8.40;;;;;;;;;;5084472;28;20024;-62
2023/09/04 11:46:12;;;;;;;12.55;10.13;;;;;;;;;;5093588;28;20027;-62
2023/09/04 11:48:38;;;;;;;9.80;9.10;;;;;;;;;;5093833;28;20482;-62
2023/09/04 11:51:04;;;;;;;11.13;8.63;;;;;;;;;;5093740;28;20409;-62
2023/09/04 11:53:31;;;;;;;11.85;7.97;;;;;;;;;;5093757;28;20545;-62
2023/09/04 11:55:57;;;;;;;7.30;6.70;;;;;;;;;;5081903;28;20389;-62
2023/09/04 11:58:23;;;;;;;9.23;8.40;;;;;;;;;;5093532;28;20499;-62
2023/09/04 12:00:50;;;;;;;9.60;7.88;;;;;;;;;;5093629;28;20024;-62
2023/09/04 12:03:16;;;;;;;9.48;8.68;;;;;;;;;;5093787;28;20362;-61
2023/09/04 12:05:42;;;;;;;8.25;7.47;;;;;;;;;;5093628;28;20019;-61
2023/09/04 12:08:08;;;;;;;8.82;6.38;;;;;;;;;;5093554;28;20376;-61
2023/09/04 12:10:34;;;;;;;9.80;7.63;;;;;;;;;;5097496;28;20090;-60
2023/09/04 12:13:01;;;;;;;7.75;6.60;;;;;;;;;;5103493;28;20070;-61
2023/09/04 12:15:33;;;;;;;9.43;7.35;;;;;;;;;;5093280;28;20024;-62
2023/09/04 12:17:59;;;;;;;8.98;8.20;;;;;;;;;;5093251;28;20024;-61
2023/09/04 12:20:25;;;;;;;8.30;6.65;;;;;;;;;;5093151;28;20032;-61
2023/09/04 12:23:00;;;;;;;6.75;6.15;;;;;;;;;;5093409;28;20042;-61
2023/09/04 12:25:46;;;;;;;8.82;5.60;;;;;;;;;;5093152;28;20020;-61
2023/09/04 12:28:13;;;;;;;11.13;7.45;;;;;;;;;;5093122;28;20028;-62
2023/09/04 12:30:40;;;;;;;13.57;6.72;;;;;;;;;;5094460;28;20027;-62
2023/09/04 12:33:10;;;;;;;7.32;6.60;;;;;;;;;;5102444;28;20069;-62
2023/09/04 12:35:36;;;;;;;7.38;6.68;;;;;;;;;;5078552;28;20363;-62
2023/09/04 12:38:03;;;;;;;8.35;6.50;;;;;;;;;;5119874;27;20122;-62
2023/09/04 12:40:29;;;;;;;11.43;7.97;;;;;;;;;;5090694;28;20572;-62
2023/09/04 12:42:55;;;;;;;7.63;6.35;;;;;;;;;;5091227;28;20055;-62
2023/09/04 12:45:21;;;;;;;10.52;7.50;;;;;;;;;;5092146;28;20519;-62
2023/09/04 12:47:47;;;;;;;8.13;7.32;;;;;;;;;;5090220;28;20048;-62
2023/09/04 12:50:13;;;;;;;7.60;7.03;;;;;;;;;;5090099;28;20023;-62
2023/09/04 12:52:44;;;;;;;7.30;6.63;;;;;;;;;;5089788;28;20024;-62
2023/09/04 12:55:10;;;;;;;8.45;7.55;;;;;;;;;;5089833;28;20020;-62
2023/09/04 12:57:36;;;;;;;7.53;6.93;;;;;;;;;;5117055;28;20068;-62
2023/09/04 13:00:03;;;;;;;12.95;8.48;;;;;;;;;;5091041;28;20020;-61
2023/09/04 13:02:29;;;;;;;8.23;6.65;;;;;;;;;;5101845;28;20047;-62
2023/09/04 13:04:55;;;;;;;6.57;5.95;;;;;;;;;;5108700;28;20513;-62
2023/09/04 13:07:21;;;;;;;8.13;7.43;;;;;;;;;;5089126;28;20036;-62
2023/09/04 13:09:47;;;;;;;8.70;7.90;;;;;;;;;;5108322;28;20668;-62
2023/09/04 13:12:13;;;;;;;9.27;6.88;;;;;;;;;;5102225;28;20493;-61
2023/09/04 13:14:39;;;;;;;7.97;7.15;;;;;;;;;;5092158;28;20028;-61
2023/09/04 13:17:05;;;;;;;7.25;6.60;;;;;;;;;;5094617;28;20103;-61
2023/09/04 13:19:31;;;;;;;8.57;7.10;;;;;;;;;;5085255;28;20124;-61
2023/09/04 13:21:58;;;;;;;8.13;6.70;;;;;;;;;;5118993;28;20024;-61
2023/09/04 13:24:24;;;;;;;6.45;5.95;;;;;;;;;;5090717;28;20414;-61
2023/09/04 13:26:50;;;;;;;7.03;6.53;;;;;;;;;;5090538;28;20035;-61
2023/09/04 13:29:16;;;;;;;8.23;6.30;;;;;;;;;;5090804;28;20029;-61
2023/09/04 13:31:42;;;;;;;7.25;6.03;;;;;;;;;;5090412;28;20024;-62
2023/09/04 13:34:08;;;;;;;7.68;6.80;;;;;;;;;;5090630;28;20024;-62
2023/09/04 13:36:35;;;;;;;6.40;5.18;;;;;;;;;;5090304;28;20032;-62
2023/09/04 13:39:01;;;;;;;8.07;5.80;;;;;;;;;;5092173;28;20016;-62
2023/09/04 13:41:27;;;;;;;7.20;6.22;;;;;;;;;;5094576;28;20028;-62
2023/09/04 13:43:55;;;;;;;7.53;6.22;;;;;;;;;;5106846;28;20031;-61
2023/09/04 13:46:21;;;;;;;6.97;6.10;;;;;;;;;;5099932;28;20048;-61
2023/09/04 13:48:47;;;;;;;6.10;5.60;;;;;;;;;;5103582;28;20040;-60
2023/09/04 13:51:13;;;;;;;6.93;6.22;;;;;;;;;;5093430;28;20016;-61
2023/09/04 13:53:40;;;;;;;10.00;7.00;;;;;;;;;;5094728;28;20043;-62
2023/09/04 13:56:06;;;;;;;6.65;6.13;;;;;;;;;;5094341;28;20069;-61
2023/09/04 13:58:32;;;;;;;6.85;6.25;;;;;;;;;;5094355;28;20028;-61
2023/09/04 14:00:58;;;;;;;6.50;5.90;;;;;;;;;;5094396;28;20423;-62
2023/09/04 14:03:24;;;;;;;6.53;5.90;;;;;;;;;;5095203;28;20028;-62
2023/09/04 14:05:51;;;;;;;7.68;5.68;;;;;;;;;;5095672;28;20020;-62
2023/09/04 14:08:17;;;;;;;6.50;5.47;;;;;;;;;;5098946;28;20042;-62
2023/09/04 14:10:43;;;;;;;8.90;6.75;;;;;;;;;;5119906;27;20526;-62
2023/09/04 14:13:12;;;;;;;7.43;5.72;;;;;;;;;;5110353;27;20031;-62
2023/09/04 14:15:39;;;;;;;8.43;6.22;;;;;;;;;;5095545;28;20085;-62
2023/09/04 14:18:05;;;;;;;11.25;6.30;;;;;;;;;;5095833;28;20047;-62
2023/09/04 14:20:31;;;;;;;7.60;6.28;;;;;;;;;;5095678;28;20016;-62
2023/09/04 14:22:57;;;;;;;10.07;7.40;;;;;;;;;;5095702;28;20024;-62
2023/09/04 14:25:23;;;;;;;8.93;5.90;;;;;;;;;;5095651;28;20366;-62